Time;durP1;ratioP1;P1;durP2;ratioP2;P2;SDS_P1;SDS_P2;PMS_P1;PMS_P2;Temp;Humidity;BMP_temperature;BMP_pressure;BME280_temperature;BME280_humidity;BME280_pressure;Samples;Min_cycle;Max_cycle;Signal;HPM_P1;HPM_P2
2021/07/09 00:01:50;;;;;;;;;;;;;;;25.42;41.64;102273.19;5016726;28;20437;-83
2021/07/09 00:04:15;;;;;;;;;;;;;;;25.55;41.02;102280.44;4998834;28;19917;-83
2021/07/09 00:06:42;;;;;;;;;;;;;;;25.53;41.42;102268.59;4998229;28;19960;-81
2021/07/09 00:09:07;;;;;;;;;;;;;;;25.52;41.55;102267.72;4997440;28;19924;-81
2021/07/09 00:11:34;;;;;;;;;;;;;;;25.50;41.41;102268.88;4997229;28;19917;-83
2021/07/09 00:14:00;;;;;;;;;;;;;;;25.44;41.65;102268.41;4997093;28;19937;-81
2021/07/09 00:16:25;;;;;;;;;;;;;;;25.46;41.70;102269.16;5014487;28;19917;-82
2021/07/09 00:18:50;;;;;;;;;;;;;;;25.54;41.36;102257.38;4996924;28;20390;-81
2021/07/09 00:21:16;;;;;;;;;;;;;;;24.99;42.91;102257.56;4996799;28;19972;-81
2021/07/09 00:23:42;;;;;;;;;;;;;;;24.54;43.91;102252.19;5014172;28;19921;-82
2021/07/09 00:26:07;;;;;;;;;;;;;;;24.93;43.73;102252.56;4996553;28;19948;-81
2021/07/09 00:28:33;;;;;;;;;;;;;;;24.33;45.92;102255.75;4996807;28;20351;-81
2021/07/09 00:30:58;;;;;;;;;;;;;;;24.95;43.49;102253.31;5014491;28;19924;-82
2021/07/09 00:33:23;;;;;;;;;;;;;;;25.11;43.04;102248.19;5014470;28;19964;-83
2021/07/09 00:35:49;;;;;;;;;;;;;;;25.10;42.72;102253.84;5014089;28;19925;-82
2021/07/09 00:38:14;;;;;;;;;;;;;;;25.11;43.19;102253.72;4997481;28;19932;-82
2021/07/09 00:40:40;;;;;;;;;;;;;;;25.09;43.21;102250.22;5014652;28;19928;-82
2021/07/09 00:43:05;;;;;;;;;;;;;;;24.68;44.47;102256.56;4996370;28;20016;-82
2021/07/09 00:45:30;;;;;;;;;;;;;;;25.18;42.99;102255.94;5013929;28;20019;-82
2021/07/09 00:47:56;;;;;;;;;;;;;;;25.48;42.13;102260.69;4996884;28;20256;-82
2021/07/09 00:50:21;;;;;;;;;;;;;;;25.36;42.01;102251.59;4980586;28;19960;-83
2021/07/09 00:52:47;;;;;;;;;;;;;;;25.05;42.91;102256.16;4996965;28;19917;-84
2021/07/09 00:55:13;;;;;;;;;;;;;;;25.39;42.04;102251.31;4996889;28;19918;-83
2021/07/09 00:57:39;;;;;;;;;;;;;;;25.13;42.28;102254.44;4996934;28;19917;-83
2021/07/09 01:00:06;;;;;;;;;;;;;;;25.47;41.36;102251.53;4997273;28;19918;-83
2021/07/09 01:02:31;;;;;;;;;;;;;;;25.51;41.20;102254.00;4997297;28;19959;-83
2021/07/09 01:04:57;;;;;;;;;;;;;;;25.13;42.36;102256.34;4998293;28;19925;-83
2021/07/09 01:07:23;;;;;;;;;;;;;;;24.45;44.13;102253.81;5015912;28;19914;-83
2021/07/09 01:09:48;;;;;;;;;;;;;;;24.50;43.83;102254.31;4998184;28;19917;-82
2021/07/09 01:12:13;;;;;;;;;;;;;;;24.50;43.83;102262.59;5015427;28;19917;-83
2021/07/09 01:14:39;;;;;;;;;;;;;;;24.79;43.04;102264.84;4997959;28;20329;-82
2021/07/09 01:17:04;;;;;;;;;;;;;;;24.43;43.98;102255.84;5015578;28;19917;-82
2021/07/09 01:19:30;;;;;;;;;;;;;;;24.64;43.76;102261.50;4998383;28;20359;-83
2021/07/09 01:21:55;;;;;;;;;;;;;;;24.55;44.21;102259.47;4998148;28;20321;-83
2021/07/09 01:24:22;;;;;;;;;;;;;;;24.79;43.23;102261.16;5014512;28;20381;-82
2021/07/09 01:26:47;;;;;;;;;;;;;;;24.17;44.29;102263.56;5014438;28;20008;-84
2021/07/09 01:29:13;;;;;;;;;;;;;;;24.41;43.58;102256.00;4996592;28;20009;-82
2021/07/09 01:31:38;;;;;;;;;;;;;;;24.40;43.25;102267.19;4996792;28;19917;-82
2021/07/09 01:34:04;;;;;;;;;;;;;;;24.29;43.79;102261.66;5014639;28;19981;-83
2021/07/09 01:36:30;;;;;;;;;;;;;;;24.22;43.84;102267.69;5014321;28;19921;-83
2021/07/09 01:38:55;;;;;;;;;;;;;;;24.41;42.92;102269.81;4996805;28;19925;-82
2021/07/09 01:41:21;;;;;;;;;;;;;;;24.67;41.97;102265.84;5013170;28;20240;-82
2021/07/09 01:43:47;;;;;;;;;;;;;;;24.41;42.59;102261.53;4996624;28;19957;-83
2021/07/09 01:46:12;;;;;;;;;;;;;;;24.20;43.56;102260.53;4996942;28;19925;-81
2021/07/09 01:48:37;;;;;;;;;;;;;;;24.45;42.81;102259.38;5014993;28;19918;-83
2021/07/09 01:51:03;;;;;;;;;;;;;;;24.45;43.08;102269.56;5015507;28;19917;-83
2021/07/09 01:53:28;;;;;;;;;;;;;;;24.75;41.60;102264.19;5015079;28;20260;-82
2021/07/09 01:55:53;;;;;;;;;;;;;;;24.60;41.97;102265.53;4997618;28;19917;-82
2021/07/09 01:58:19;;;;;;;;;;;;;;;24.17;42.81;102266.31;4997348;28;19985;-82
2021/07/09 02:00:45;;;;;;;;;;;;;;;24.63;41.72;102262.50;4997324;28;19917;-82
2021/07/09 02:03:10;;;;;;;;;;;;;;;24.67;41.00;102252.03;4997241;28;19972;-82
2021/07/09 02:05:35;;;;;;;;;;;;;;;24.70;41.09;102255.44;4996207;28;20448;-83
2021/07/09 02:08:01;;;;;;;;;;;;;;;24.80;40.35;102251.88;4995462;28;20008;-84
2021/07/09 02:10:27;;;;;;;;;;;;;;;24.74;40.16;102251.41;5013128;28;20012;-83
2021/07/09 02:12:54;;;;;;;;;;;;;;;24.63;40.46;102248.66;4996529;28;20263;-84
2021/07/09 02:15:22;;;;;;;;;;;;;;;24.50;40.59;102245.13;4999071;28;19918;-84
2021/07/09 02:17:47;;;;;;;;;;;;;;;24.63;40.42;102243.13;4998754;28;19924;-83
2021/07/09 02:20:15;;;;;;;;;;;;;;;24.63;40.59;102245.88;4999367;28;19917;-83
2021/07/09 02:22:40;;;;;;;;;;;;;;;24.21;41.53;102248.47;4999673;28;19914;-82
2021/07/09 02:25:06;;;;;;;;;;;;;;;23.87;42.53;102251.28;4999592;28;20270;-82
2021/07/09 02:27:33;;;;;;;;;;;;;;;23.83;42.98;102249.75;4999313;28;20397;-82
2021/07/09 02:29:58;;;;;;;;;;;;;;;23.99;42.78;102247.50;5017214;28;19918;-82
2021/07/09 02:32:23;;;;;;;;;;;;;;;24.13;42.19;102248.25;5017001;28;19933;-83
2021/07/09 02:34:48;;;;;;;;;;;;;;;24.13;42.29;102248.25;5016802;28;19926;-83
2021/07/09 02:37:13;;;;;;;;;;;;;;;23.95;42.58;102243.22;4999107;28;19988;-82
2021/07/09 02:39:40;;;;;;;;;;;;;;;23.68;43.78;102243.56;5015332;28;20315;-83
2021/07/09 02:42:06;;;;;;;;;;;;;;;23.68;43.52;102254.63;5016732;28;19917;-84
2021/07/09 02:44:31;;;;;;;;;;;;;;;23.68;43.46;102249.09;4999153;28;19917;-83
2021/07/09 02:46:57;;;;;;;;;;;;;;;23.47;44.43;102251.72;4999793;28;19913;-83
2021/07/09 02:49:22;;;;;;;;;;;;;;;23.45;45.15;102242.69;4999585;28;19972;-84
2021/07/09 02:51:47;;;;;;;;;;;;;;;23.76;44.20;102251.25;4999346;28;20353;-82
2021/07/09 02:54:12;;;;;;;;;;;;;;;23.63;43.76;102246.72;4999545;28;19980;-83
2021/07/09 02:56:38;;;;;;;;;;;;;;;23.58;43.92;102248.94;5015811;28;19913;-83
2021/07/09 02:59:03;;;;;;;;;;;;;;;23.57;43.78;102251.84;5017206;28;19921;-83
2021/07/09 03:01:28;;;;;;;;;;;;;;;23.65;43.72;102249.34;4999746;28;20316;-84
2021/07/09 03:03:54;;;;;;;;;;;;;;;23.78;43.15;102251.97;5017078;28;20367;-81
2021/07/09 03:06:22;;;;;;;;;;;;;;;23.84;42.46;102249.63;5017000;28;19921;-84
2021/07/09 03:08:48;;;;;;;;;;;;;;;24.02;41.69;102250.00;5017025;28;20295;-83
2021/07/09 03:11:14;;;;;;;;;;;;;;;23.41;43.81;102250.31;4999047;28;19925;-83
2021/07/09 03:13:40;;;;;;;;;;;;;;;23.39;43.60;102244.06;4999137;28;19917;-83
2021/07/09 03:16:05;;;;;;;;;;;;;;;23.59;43.22;102255.38;4998719;28;19924;-84
2021/07/09 03:18:30;;;;;;;;;;;;;;;23.25;44.29;102253.44;4997815;28;19972;-83
2021/07/09 03:20:56;;;;;;;;;;;;;;;23.22;44.38;102242.66;4997795;28;19917;-83
2021/07/09 03:23:22;;;;;;;;;;;;;;;23.49;43.61;102245.06;4997654;28;19918;-83
2021/07/09 03:25:47;;;;;;;;;;;;;;;23.72;42.82;102239.56;4997075;28;19929;-84
2021/07/09 03:28:12;;;;;;;;;;;;;;;23.64;43.33;102248.47;5015252;28;19948;-83
2021/07/09 03:30:38;;;;;;;;;;;;;;;23.87;42.64;102237.47;4997637;28;19967;-83
2021/07/09 03:33:03;;;;;;;;;;;;;;;23.65;43.01;102235.53;4998228;28;20020;-83
2021/07/09 03:35:29;;;;;;;;;;;;;;;23.62;43.95;102225.59;4997770;28;19925;-82
2021/07/09 03:37:54;;;;;;;;;;;;;;;23.59;43.69;102227.75;4999454;28;19925;-82
2021/07/09 03:40:19;;;;;;;;;;;;;;;23.81;43.36;102235.16;4999766;28;19918;-83
2021/07/09 03:42:44;;;;;;;;;;;;;;;23.36;45.69;102239.66;4999658;28;19918;-82
2021/07/09 03:45:10;;;;;;;;;;;;;;;23.47;45.57;102236.00;4999674;28;20383;-83
2021/07/09 03:47:35;;;;;;;;;;;;;;;23.52;45.63;102232.88;4999716;28;19917;-83
2021/07/09 03:50:00;;;;;;;;;;;;;;;23.25;46.79;102231.34;5015951;28;19922;-83
2021/07/09 03:52:25;;;;;;;;;;;;;;;23.04;47.55;102233.00;5014511;28;20358;-84
2021/07/09 03:54:51;;;;;;;;;;;;;;;22.93;48.30;102245.78;4996745;28;19960;-84
2021/07/09 03:57:16;;;;;;;;;;;;;;;22.45;51.11;102243.03;4996705;28;19917;-84
2021/07/09 03:59:41;;;;;;;;;;;;;;;22.82;49.43;102251.25;4997002;28;20042;-83
2021/07/09 04:02:07;;;;;;;;;;;;;;;23.01;49.08;102243.28;5015333;28;20444;-83
2021/07/09 04:04:32;;;;;;;;;;;;;;;22.78;49.77;102245.09;5015583;28;20382;-84
2021/07/09 04:06:57;;;;;;;;;;;;;;;22.87;49.53;102235.19;4997011;28;19968;-83
2021/07/09 04:09:23;;;;;;;;;;;;;;;23.01;49.26;102242.44;4997676;28;19917;-83
2021/07/09 04:11:48;;;;;;;;;;;;;;;23.02;48.94;102238.63;4997459;28;19921;-82
2021/07/09 04:14:13;;;;;;;;;;;;;;;22.99;49.22;102255.44;5015005;28;19960;-81
2021/07/09 04:16:39;;;;;;;;;;;;;;;22.99;49.33;102258.22;4998519;28;20003;-81
2021/07/09 04:19:04;;;;;;;;;;;;;;;22.52;51.02;102257.25;4998186;28;20386;-82
2021/07/09 04:21:29;;;;;;;;;;;;;;;22.91;49.75;102255.19;4998756;28;19941;-84
2021/07/09 04:23:55;;;;;;;;;;;;;;;23.32;48.08;102254.69;4999925;28;20008;-83
2021/07/09 04:26:20;;;;;;;;;;;;;;;22.76;50.01;102254.47;5001064;28;20649;-84
2021/07/09 04:28:45;;;;;;;;;;;;;;;22.88;50.07;102252.66;5018209;28;19919;-83
2021/07/09 04:31:10;;;;;;;;;;;;;;;23.07;49.21;102255.75;5001040;28;19921;-83
2021/07/09 04:33:36;;;;;;;;;;;;;;;23.31;48.49;102264.00;5001786;28;20318;-87
2021/07/09 04:36:02;;;;;;;;;;;;;;;23.41;48.52;102264.13;5001026;28;20020;-83
2021/07/09 04:38:28;;;;;;;;;;;;;;;23.53;48.11;102262.28;5001772;28;20382;-86
2021/07/09 04:40:53;;;;;;;;;;;;;;;23.60;47.55;102260.78;5002687;28;20016;-82
2021/07/09 04:43:19;;;;;;;;;;;;;;;23.85;47.48;102256.03;5019696;28;19917;-85
2021/07/09 04:45:44;;;;;;;;;;;;;;;24.14;46.56;102261.03;5002453;28;20268;-84
2021/07/09 04:48:10;;;;;;;;;;;;;;;24.36;46.34;102254.59;5000449;28;19924;-82
2021/07/09 04:50:35;;;;;;;;;;;;;;;24.33;46.15;102258.50;5019157;28;19918;-84
2021/07/09 04:53:01;;;;;;;;;;;;;;;24.83;44.90;102257.13;5000954;28;19944;-83
2021/07/09 04:55:27;;;;;;;;;;;;;;;25.12;44.24;102255.50;5003272;28;20394;-87
2021/07/09 04:57:54;;;;;;;;;;;;;;;25.42;43.09;102262.13;5003700;28;19924;-85
2021/07/09 05:00:19;;;;;;;;;;;;;;;25.88;42.07;102254.34;5019355;28;19918;-84
2021/07/09 05:02:46;;;;;;;;;;;;;;;25.93;42.20;102256.72;4999196;28;19920;-85
2021/07/09 05:05:13;;;;;;;;;;;;;;;25.97;41.69;102253.50;4999961;28;20386;-86
2021/07/09 05:07:38;;;;;;;;;;;;;;;26.31;41.65;102266.19;5000801;28;19924;-84
2021/07/09 05:10:07;;;;;;;;;;;;;;;26.66;40.54;102265.72;5001399;28;19965;-87
2021/07/09 05:12:33;;;;;;;;;;;;;;;25.98;42.31;102262.69;5003128;28;19924;-87
2021/07/09 05:15:00;;;;;;;;;;;;;;;26.06;42.46;102257.38;5000884;28;19985;-87
2021/07/09 05:17:25;;;;;;;;;;;;;;;25.77;43.40;102255.34;5018324;28;20020;-87
2021/07/09 05:19:53;;;;;;;;;;;;;;;25.70;43.68;102259.66;5000980;28;19964;-90
2021/07/09 05:22:20;;;;;;;;;;;;;;;25.24;45.07;102269.25;5000875;28;19963;-89
2021/07/09 05:24:46;;;;;;;;;;;;;;;25.87;43.52;102266.44;5016301;28;19925;-88
2021/07/09 05:27:12;;;;;;;;;;;;;;;26.40;42.03;102265.34;4998162;28;19922;-87
2021/07/09 05:29:37;;;;;;;;;;;;;;;25.93;43.44;102274.22;4997797;28;19913;-87
2021/07/09 05:32:03;;;;;;;;;;;;;;;25.36;45.21;102272.88;4997517;28;19964;-88
2021/07/09 05:34:29;;;;;;;;;;;;;;;25.51;45.13;102278.97;4997111;28;20283;-88
2021/07/09 05:36:54;;;;;;;;;;;;;;;25.26;45.85;102284.75;4998181;28;19922;-84
2021/07/09 05:39:19;;;;;;;;;;;;;;;25.68;44.92;102281.13;4997701;28;19917;-86
2021/07/09 05:41:46;;;;;;;;;;;;;;;25.50;45.62;102282.72;4999853;28;19960;-88
2021/07/09 05:44:19;;;;;;;;;;;;;;;25.32;46.14;102279.69;5021054;28;19968;-87
2021/07/09 05:46:46;;;;;;;;;;;;;;;25.26;46.44;102270.03;4987509;28;19922;-86
2021/07/09 05:49:15;;;;;;;;;;;;;;;25.44;46.51;102273.09;5007340;28;19921;-85
2021/07/09 05:51:42;;;;;;;;;;;;;;;25.36;46.41;102267.34;5103327;23;19924;-83
2021/07/09 05:54:09;;;;;;;;;;;;;;;25.68;46.07;102270.03;5063869;28;19917;-87
2021/07/09 05:56:34;;;;;;;;;;;;;;;26.20;44.30;102274.66;5044102;28;19916;-88
2021/07/09 05:58:59;;;;;;;;;;;;;;;26.04;45.27;102267.72;5043787;28;19925;-86
2021/07/09 06:03:50;;;;;;;;;;;;;;;26.93;42.21;102271.56;5030801;23;19925;-89
2021/07/09 06:06:15;;;;;;;;;;;;;;;26.02;44.84;102275.31;5005764;28;19933;-88
2021/07/09 06:08:40;;;;;;;;;;;;;;;25.82;44.99;102266.88;5006540;28;19921;-88
2021/07/09 06:11:06;;;;;;;;;;;;;;;26.12;44.44;102267.91;5025159;28;19921;-91
2021/07/09 06:13:31;;;;;;;;;;;;;;;26.72;43.08;102271.72;5009029;28;19988;-88
2021/07/09 06:15:56;;;;;;;;;;;;;;;25.86;45.22;102272.13;5024248;28;20025;-87
2021/07/09 06:18:23;;;;;;;;;;;;;;;25.86;44.90;102263.81;5007795;28;19924;-87
2021/07/09 06:20:48;;;;;;;;;;;;;;;26.91;42.72;102271.72;5009149;28;20563;-85
2021/07/09 06:23:14;;;;;;;;;;;;;;;26.13;44.15;102266.91;5025598;28;19949;-86
2021/07/09 06:25:39;;;;;;;;;;;;;;;25.62;45.63;102271.44;5006688;28;19925;-90
2021/07/09 06:28:04;;;;;;;;;;;;;;;26.48;43.33;102268.31;5003542;28;19917;-91
2021/07/09 06:30:30;;;;;;;;;;;;;;;25.78;44.72;102265.38;5004245;28;19918;-88
2021/07/09 06:32:56;;;;;;;;;;;;;;;25.19;47.03;102263.25;5004893;28;20016;-84
2021/07/09 06:35:24;;;;;;;;;;;;;;;25.55;45.65;102263.81;5004267;28;19944;-84
2021/07/09 06:37:51;;;;;;;;;;;;;;;26.83;43.24;102263.25;5022314;28;19917;-88
2021/07/09 06:40:16;;;;;;;;;;;;;;;26.74;42.57;102261.31;5022414;28;19921;-86
2021/07/09 06:42:41;;;;;;;;;;;;;;;26.17;44.12;102260.03;5021892;28;19924;-87
2021/07/09 06:45:07;;;;;;;;;;;;;;;25.98;44.30;102254.38;5003883;28;19917;-91
2021/07/09 06:47:32;;;;;;;;;;;;;;;26.56;42.59;102259.25;5004208;28;19918;-88
2021/07/09 06:49:57;;;;;;;;;;;;;;;26.28;43.25;102255.38;5003849;28;19925;-86
2021/07/09 06:52:22;;;;;;;;;;;;;;;26.81;42.29;102256.97;5004214;28;20355;-88
2021/07/09 06:54:48;;;;;;;;;;;;;;;25.58;45.07;102269.09;5004570;28;19917;-89
2021/07/09 06:57:13;;;;;;;;;;;;;;;26.72;42.43;102263.38;5020320;28;19961;-89
2021/07/09 06:59:39;;;;;;;;;;;;;;;25.53;45.25;102261.19;5019352;28;19922;-88
2021/07/09 07:02:04;;;;;;;;;;;;;;;25.00;46.54;102264.88;5003636;28;19929;-89
2021/07/09 07:04:29;;;;;;;;;;;;;;;25.65;45.40;102260.09;5020378;28;20023;-88
2021/07/09 07:06:57;;;;;;;;;;;;;;;25.57;45.31;102256.25;5021442;28;20394;-88
2021/07/09 07:09:23;;;;;;;;;;;;;;;24.97;45.66;102265.13;5006770;28;19917;-84
2021/07/09 07:11:48;;;;;;;;;;;;;;;24.52;48.20;102265.28;5005592;28;20371;-87
2021/07/09 07:14:13;;;;;;;;;;;;;;;25.65;45.02;102261.94;5023129;28;20268;-88
2021/07/09 07:16:38;;;;;;;;;;;;;;;25.87;45.06;102258.13;5021141;28;19964;-89
2021/07/09 07:19:04;;;;;;;;;;;;;;;25.27;46.63;102260.69;5003732;28;19918;-88
2021/07/09 07:21:29;;;;;;;;;;;;;;;26.08;44.41;102254.47;5004212;28;19917;-87
2021/07/09 07:23:54;;;;;;;;;;;;;;;26.53;43.18;102262.31;5004072;28;19925;-87
2021/07/09 07:26:20;;;;;;;;;;;;;;;26.04;44.42;102261.31;5021503;28;19928;-88
2021/07/09 07:28:45;;;;;;;;;;;;;;;26.07;44.44;102259.13;5022252;28;19972;-85
2021/07/09 07:31:10;;;;;;;;;;;;;;;25.81;44.33;102267.00;5004288;28;19937;-89
2021/07/09 07:33:37;;;;;;;;;;;;;;;25.43;45.06;102272.19;5021384;28;19921;-84
2021/07/09 07:36:02;;;;;;;;;;;;;;;26.75;42.84;102263.09;5022174;28;19953;-90
2021/07/09 07:38:27;;;;;;;;;;;;;;;26.79;42.42;102265.44;5004885;28;19996;-87
2021/07/09 07:40:52;;;;;;;;;;;;;;;27.14;41.38;102275.06;5005301;28;19993;-90
2021/07/09 07:43:18;;;;;;;;;;;;;;;26.67;42.22;102272.16;5006729;28;19929;-91
2021/07/09 07:45:43;;;;;;;;;;;;;;;26.05;43.21;102266.72;4992095;28;20035;-91
2021/07/09 07:48:12;;;;;;;;;;;;;;;26.28;42.76;102267.34;4994162;28;19917;-88
2021/07/09 07:50:37;;;;;;;;;;;;;;;26.42;43.03;102263.31;4997575;28;19926;-90
2021/07/09 07:53:02;;;;;;;;;;;;;;;26.23;43.26;102272.47;4998266;28;19971;-93
2021/07/09 07:55:28;;;;;;;;;;;;;;;26.11;43.52;102262.50;5001895;28;19917;-90
2021/07/09 07:57:55;;;;;;;;;;;;;;;25.50;44.73;102261.47;5018515;28;19918;-89
2021/07/09 08:00:20;;;;;;;;;;;;;;;26.99;41.23;102268.22;4988328;28;19921;-90
2021/07/09 08:02:45;;;;;;;;;;;;;;;25.86;43.71;102256.38;4997933;28;19929;-91
2021/07/09 08:05:11;;;;;;;;;;;;;;;26.57;42.07;102271.22;4991039;28;19926;-90
2021/07/09 08:07:36;;;;;;;;;;;;;;;26.82;41.52;102262.38;4999188;28;19918;-91
2021/07/09 08:10:05;;;;;;;;;;;;;;;26.68;41.45;102269.22;4995046;28;19989;-89
2021/07/09 08:12:30;;;;;;;;;;;;;;;27.98;39.36;102264.25;4992353;28;19972;-86
2021/07/09 08:14:56;;;;;;;;;;;;;;;26.88;40.56;102266.47;5005737;28;19921;-90
2021/07/09 08:17:21;;;;;;;;;;;;;;;27.20;40.47;102270.84;5002470;28;19928;-87
2021/07/09 08:19:47;;;;;;;;;;;;;;;26.61;40.79;102267.16;5003935;28;20012;-87
2021/07/09 08:22:13;;;;;;;;;;;;;;;26.37;41.50;102271.19;5000632;28;20024;-90
2021/07/09 08:24:40;;;;;;;;;;;;;;;27.82;38.79;102270.44;4991443;28;20016;-90
2021/07/09 08:27:05;;;;;;;;;;;;;;;27.39;39.21;102261.63;5012673;28;19963;-90
2021/07/09 08:29:30;;;;;;;;;;;;;;;28.35;37.57;102264.16;4980960;28;19968;-89
2021/07/09 08:31:57;;;;;;;;;;;;;;;29.01;36.74;102262.09;5002880;28;19929;-90
2021/07/09 08:34:22;;;;;;;;;;;;;;;27.46;39.40;102259.97;4986570;28;19918;-89
2021/07/09 08:36:47;;;;;;;;;;;;;;;27.31;39.32;102255.88;4977401;28;19926;-88
2021/07/09 08:39:15;;;;;;;;;;;;;;;26.51;40.75;102256.00;5020574;28;19960;-87
2021/07/09 08:41:41;;;;;;;;;;;;;;;28.10;38.07;102252.75;4992944;28;19917;-90
2021/07/09 08:44:06;;;;;;;;;;;;;;;27.83;37.47;102253.59;4985290;28;19932;-90
2021/07/09 08:46:34;;;;;;;;;;;;;;;27.64;38.12;102250.88;4996967;28;19929;-88
2021/07/09 08:49:00;;;;;;;;;;;;;;;27.40;37.97;102258.69;4993996;28;20037;-90
2021/07/09 08:51:27;;;;;;;;;;;;;;;28.11;37.48;102253.63;4996605;28;22669;-89
2021/07/09 08:53:53;;;;;;;;;;;;;;;28.05;36.15;102252.34;4992401;28;20264;-88
2021/07/09 08:56:19;;;;;;;;;;;;;;;28.19;36.62;102253.75;4990785;28;19968;-89
2021/07/09 08:58:45;;;;;;;;;;;;;;;28.31;36.23;102257.19;5012930;28;19940;-91
2021/07/09 09:01:11;;;;;;;;;;;;;;;28.74;35.53;102247.22;5016336;28;19917;-88
2021/07/09 09:03:37;;;;;;;;;;;;;;;28.61;35.54;102242.06;4995987;28;19933;-88
2021/07/09 09:06:02;;;;;;;;;;;;;;;27.99;35.95;102252.97;4993474;28;20427;-85
2021/07/09 09:08:32;;;;;;;;;;;;;;;27.15;37.86;102249.06;4981441;28;20441;-89
2021/07/09 09:10:58;;;;;;;;;;;;;;;27.11;37.41;102249.50;4983464;28;19924;-89
2021/07/09 09:13:25;;;;;;;;;;;;;;;27.89;36.48;102250.19;4996276;28;20019;-87
2021/07/09 09:15:57;;;;;;;;;;;;;;;27.46;36.79;102251.63;4992085;28;19925;-89
2021/07/09 09:18:29;;;;;;;;;;;;;;;28.16;35.65;102240.13;4995135;28;19972;-87
2021/07/09 09:21:13;;;;;;;;;;;;;;;28.72;34.04;102240.09;4998771;28;19933;-89
2021/07/09 09:23:53;;;;;;;;;;;;;;;28.94;33.46;102247.06;5005275;28;19918;-90
2021/07/09 09:26:46;;;;;;;;;;;;;;;29.06;33.52;102248.56;5008582;28;19933;-86
2021/07/09 09:29:31;;;;;;;;;;;;;;;28.97;33.39;102247.63;5023955;28;20379;-84
2021/07/09 09:32:00;;;;;;;;;;;;;;;28.71;34.86;102253.13;4992196;28;20271;-91
2021/07/09 09:34:38;;;;;;;;;;;;;;;29.08;34.83;102242.81;5003340;28;19929;-92
2021/07/09 09:37:04;;;;;;;;;;;;;;;29.65;33.59;102236.81;5010681;28;19918;-91
2021/07/09 09:39:32;;;;;;;;;;;;;;;30.41;32.13;102235.13;5010792;28;19984;-91
2021/07/09 09:42:18;;;;;;;;;;;;;;;28.94;34.06;102244.28;5027679;28;19917;-94
2021/07/09 09:44:45;;;;;;;;;;;;;;;30.05;32.34;102235.31;5023878;28;20057;-94
2021/07/09 09:47:19;;;;;;;;;;;;;;;29.16;33.90;102248.47;5018365;28;19918;-90
2021/07/09 09:49:46;;;;;;;;;;;;;;;30.39;32.07;102235.25;4983874;28;19928;-88
2021/07/09 09:52:12;;;;;;;;;;;;;;;29.60;33.20;102245.69;5021737;28;20082;-89
2021/07/09 09:54:42;;;;;;;;;;;;;;;30.09;32.06;102228.34;5003908;28;20063;-93
2021/07/09 09:57:13;;;;;;;;;;;;;;;29.46;32.84;102240.72;5000448;28;19984;-93
2021/07/09 09:59:40;;;;;;;;;;;;;;;30.17;32.19;102238.66;5000094;28;19921;-92
2021/07/09 10:02:05;;;;;;;;;;;;;;;29.25;33.49;102239.16;5009045;28;19925;-91
2021/07/09 10:04:31;;;;;;;;;;;;;;;29.67;32.98;102237.53;5003835;28;19925;-93
2021/07/09 10:06:57;;;;;;;;;;;;;;;29.77;32.41;102231.81;4994049;28;19948;-92
2021/07/09 10:09:24;;;;;;;;;;;;;;;28.74;33.15;102233.31;4997820;28;19918;-89
2021/07/09 10:11:50;;;;;;;;;;;;;;;28.24;34.30;102242.13;4994668;28;19914;-92
2021/07/09 10:14:16;;;;;;;;;;;;;;;27.60;36.80;102241.97;4994810;28;19918;-89
2021/07/09 10:16:46;;;;;;;;;;;;;;;27.91;36.66;102244.47;4992678;28;20616;-90
2021/07/09 10:19:14;;;;;;;;;;;;;;;28.95;34.67;102238.53;4992536;28;20057;-90
2021/07/09 10:21:40;;;;;;;;;;;;;;;29.10;33.55;102237.97;4992444;28;19922;-90
2021/07/09 10:24:06;;;;;;;;;;;;;;;29.26;33.63;102232.56;5003066;28;19925;-87
2021/07/09 10:26:39;;;;;;;;;;;;;;;28.73;34.59;102227.91;5022348;28;20004;-88
2021/07/09 10:29:14;;;;;;;;;;;;;;;28.92;34.07;102233.28;5021638;28;19918;-90
2021/07/09 10:31:41;;;;;;;;;;;;;;;29.19;34.03;102228.66;5004686;28;19989;-89
2021/07/09 10:34:25;;;;;;;;;;;;;;;28.29;35.04;102231.41;4999814;28;19987;-86
2021/07/09 10:36:51;;;;;;;;;;;;;;;28.96;34.37;102225.50;4999186;28;19940;-90
2021/07/09 10:39:29;;;;;;;;;;;;;;;29.64;33.41;102224.78;5001685;28;19925;-89
2021/07/09 10:41:55;;;;;;;;;;;;;;;28.94;33.63;102233.13;5003799;28;19965;-86
2021/07/09 10:44:20;;;;;;;;;;;;;;;29.21;33.30;102234.94;5025460;28;19925;-91
2021/07/09 10:46:47;;;;;;;;;;;;;;;28.81;34.16;102226.06;5006136;28;20275;-89
2021/07/09 10:49:32;;;;;;;;;;;;;;;28.33;34.03;102232.84;5003830;28;19932;-85
2021/07/09 10:51:58;;;;;;;;;;;;;;;28.77;34.15;102226.53;5004611;28;19943;-88
2021/07/09 10:54:33;;;;;;;;;;;;;;;27.71;36.21;102229.78;5024488;28;20411;-88
2021/07/09 10:57:21;;;;;;;;;;;;;;;28.14;36.18;102228.25;5050956;23;19936;-87
2021/07/09 11:00:05;;;;;;;;;;;;;;;29.76;33.29;102225.38;5047827;28;20271;-88
2021/07/09 11:02:49;;;;;;;;;;;;;;;28.75;35.05;102223.91;5067328;28;19917;-94
2021/07/09 11:05:33;;;;;;;;;;;;;;;27.88;36.20;102219.75;5046224;28;19917;-87
2021/07/09 11:08:17;;;;;;;;;;;;;;;29.40;34.13;102213.50;5045467;28;19971;-90
2021/07/09 11:11:01;;;;;;;;;;;;;;;29.64;32.93;102219.22;5044289;28;19924;-85
2021/07/09 11:13:46;;;;;;;;;;;;;;;29.73;33.31;102213.66;5046083;28;19916;-89
2021/07/09 11:16:17;;;;;;;;;;;;;;;29.46;33.25;102218.41;5044903;28;19920;-88
2021/07/09 11:18:49;;;;;;;;;;;;;;;30.66;30.67;102222.03;5044556;28;19916;-89
2021/07/09 11:21:33;;;;;;;;;;;;;;;30.10;32.22;102215.25;5046293;28;19917;-90
2021/07/09 11:24:02;;;;;;;;;;;;;;;30.35;31.64;102219.88;5045903;28;19917;-90
2021/07/09 11:26:29;;;;;;;;;;;;;;;30.50;31.33;102220.13;5045649;28;19925;-90
2021/07/09 11:28:58;;;;;;;;;;;;;;;30.61;30.98;102210.53;5030125;23;20486;-92
2021/07/09 11:31:30;;;;;;;;;;;;;;;29.56;33.67;102213.59;5022551;28;19917;-86
2021/07/09 11:34:04;;;;;;;;;;;;;;;30.30;32.31;102216.75;5023533;28;20020;-87
2021/07/09 11:36:40;;;;;;;;;;;;;;;29.17;33.78;102214.88;5007629;28;19985;-89
2021/07/09 11:39:05;;;;;;;;;;;;;;;29.12;33.88;102211.72;5006066;28;20418;-87
2021/07/09 11:41:31;;;;;;;;;;;;;;;29.89;33.45;102215.72;5024043;28;19917;-88
2021/07/09 11:43:56;;;;;;;;;;;;;;;30.01;33.10;102217.16;5007420;28;20252;-91
2021/07/09 11:46:22;;;;;;;;;;;;;;;29.47;34.27;102221.03;5028816;23;19925;-89
2021/07/09 11:48:50;;;;;;;;;;;;;;;29.44;34.26;102217.69;5042862;28;20274;-92
2021/07/09 11:51:18;;;;;;;;;;;;;;;29.24;34.52;102214.25;5044759;28;19913;-92
2021/07/09 11:53:43;;;;;;;;;;;;;;;29.95;33.20;102215.03;5044645;28;19927;-94
2021/07/09 11:56:20;;;;;;;;;;;;;;;30.45;31.89;102227.25;5046185;28;19953;-93
2021/07/09 11:58:45;;;;;;;;;;;;;;;30.32;32.71;102220.22;5043653;28;19916;-92
2021/07/09 12:01:30;;;;;;;;;;;;;;;30.88;31.43;102223.28;5041337;28;20016;-90
2021/07/09 12:03:55;;;;;;;;;;;;;;;31.03;30.87;102223.50;5043635;28;19913;-91
2021/07/09 12:06:23;;;;;;;;;;;;;;;31.12;31.73;102223.47;5045253;28;19943;-91
2021/07/09 12:09:08;;;;;;;;;;;;;;;30.20;33.20;102228.03;5044265;28;19967;-92
2021/07/09 12:11:34;;;;;;;;;;;;;;;31.26;31.61;102211.59;5045165;28;19924;-94
2021/07/09 12:14:03;;;;;;;;;;;;;;;31.05;31.54;102226.97;5045000;28;19917;-91
2021/07/09 12:16:32;;;;;;;;;;;;;;;29.43;34.12;102229.91;5046660;28;19943;-93
2021/07/09 12:18:57;;;;;;;;;;;;;;;30.27;32.21;102222.66;5043790;28;19949;-93
2021/07/09 12:21:24;;;;;;;;;;;;;;;30.33;32.55;102224.78;5039648;28;19925;-91
2021/07/09 12:24:03;;;;;;;;;;;;;;;31.27;31.47;102216.16;5039403;28;19932;-92
2021/07/09 12:26:29;;;;;;;;;;;;;;;30.63;31.76;102221.53;5041896;28;19925;-93
2021/07/09 12:28:55;;;;;;;;;;;;;;;31.24;31.64;102220.16;5045625;28;20457;-93
2021/07/09 12:31:21;;;;;;;;;;;;;;;29.44;33.32;102226.94;5045853;28;19928;-92
2021/07/09 12:33:51;;;;;;;;;;;;;;;29.46;32.58;102222.06;5030084;28;19931;-92
2021/07/09 12:36:17;;;;;;;;;;;;;;;30.63;31.43;102230.78;5045646;28;20017;-90
2021/07/09 12:38:43;;;;;;;;;;;;;;;29.46;32.48;102224.00;5047104;28;19940;-92